地図

経路データ

SID SEASON NUMBER BASIN SUBBASIN NAME ISO_TIME NATURE LAT LON WMO_WIND WMO_PRES WMO_AGENCY TRACK_TYPE DIST2LAND LANDFALL IFLAG USA_AGENCY USA_ATCF_ID USA_LAT USA_LON USA_RECORD USA_STATUS USA_WIND USA_PRES USA_SSHS USA_R34_NE USA_R34_SE USA_R34_SW USA_R34_NW USA_R50_NE USA_R50_SE USA_R50_SW USA_R50_NW USA_R64_NE USA_R64_SE USA_R64_SW USA_R64_NW USA_POCI USA_ROCI USA_RMW USA_EYE TOKYO_LAT TOKYO_LON TOKYO_GRADE TOKYO_WIND TOKYO_PRES TOKYO_R50_DIR TOKYO_R50_LONG TOKYO_R50_SHORT TOKYO_R30_DIR TOKYO_R30_LONG TOKYO_R30_SHORT TOKYO_LAND CMA_LAT CMA_LON CMA_CAT CMA_WIND CMA_PRES HKO_LAT HKO_LON HKO_CAT HKO_WIND HKO_PRES NEWDELHI_LAT NEWDELHI_LON NEWDELHI_GRADE NEWDELHI_WIND NEWDELHI_PRES NEWDELHI_CI NEWDELHI_DP NEWDELHI_POCI REUNION_LAT REUNION_LON REUNION_TYPE REUNION_WIND REUNION_PRES REUNION_TNUM REUNION_CI REUNION_RMW REUNION_R34_NE REUNION_R34_SE REUNION_R34_SW REUNION_R34_NW REUNION_R50_NE REUNION_R50_SE REUNION_R50_SW REUNION_R50_NW REUNION_R64_NE REUNION_R64_SE REUNION_R64_SW REUNION_R64_NW BOM_LAT BOM_LON BOM_TYPE BOM_WIND BOM_PRES BOM_TNUM BOM_CI BOM_RMW BOM_R34_NE BOM_R34_SE BOM_R34_SW BOM_R34_NW BOM_R50_NE BOM_R50_SE BOM_R50_SW BOM_R50_NW BOM_R64_NE BOM_R64_SE BOM_R64_SW BOM_R64_NW BOM_ROCI BOM_POCI BOM_EYE BOM_POS_METHOD BOM_PRES_METHOD NADI_LAT NADI_LON NADI_CAT NADI_WIND NADI_PRES WELLINGTON_LAT WELLINGTON_LON WELLINGTON_WIND WELLINGTON_PRES DS824_LAT DS824_LON DS824_STAGE DS824_WIND DS824_PRES TD9636_LAT TD9636_LON TD9636_STAGE TD9636_WIND TD9636_PRES TD9635_LAT TD9635_LON TD9635_WIND TD9635_PRES TD9635_ROCI NEUMANN_LAT NEUMANN_LON NEUMANN_CLASS NEUMANN_WIND NEUMANN_PRES MLC_LAT MLC_LON MLC_CLASS MLC_WIND MLC_PRES USA_GUST BOM_GUST BOM_GUST_PER REUNION_GUST REUNION_GUST_PER USA_SEAHGT USA_SEARAD_NE USA_SEARAD_SE USA_SEARAD_SW USA_SEARAD_NW STORM_SPEED STORM_DIR
1992055S11086 1992 14 SI MM FARIDA 1992-02-23 12:00:00 TS -11.3000 86.4000 main 1750 1750 _____O________ -1 -11.3000 86.4000 2 20 1003 9.90000 1.50000 7 271
1992055S11086 1992 14 SI MM FARIDA 1992-02-23 15:00:00 TS -11.2926 86.0400 main 1785 1785 _____P________ -1 -11.2926 86.0400 2 22 1001 14 262
1992055S11086 1992 14 SI MM FARIDA 1992-02-23 18:00:00 TS -11.5000 84.9400 main 1896 1896 O____O______O_ jtwc_sh SH221992 -11.8000 83.8000 25 -1 -11.3000 85.7000 2 24 1000 9.90000 2.00000 -11.8000 83.8000 TC 25 12 252
1992055S11086 1992 14 SI MM FARIDA 1992-02-23 21:00:00 TS -11.6663 84.8311 main 1917 1917 P____P______P_ SH221992 -11.9977 84.2822 25 -1 -11.3348 85.3800 2 26 998 -11.9977 84.2822 TC 25 4 212
1992055S11086 1992 14 SI MM FARIDA 1992-02-24 00:00:00 TS -11.8800 84.7000 main 1939 1939 O____O______O_ jtwc_sh SH221992 -12.2000 84.5000 25 -1 -11.4000 85.0000 2 28 997 9.90000 2.50000 -12.2000 84.5000 TC 25 6 227
1992055S11086 1992 14 SI MM FARIDA 1992-02-24 03:00:00 TS -12.0951 84.3534 main 1979 1979 P____P______P_ SH221992 -12.4076 84.2902 25 -1 -11.4700 84.4799 2 28 997 -12.4076 84.2902 TC 25 9 244
1992055S11086 1992 14 SI MM FARIDA 1992-02-24 06:00:00 TS -12.2667 83.9000 main 2036 2036 O____O______O_ jtwc_sh SH221992 -12.6000 83.9000 25 -1 -11.6000 83.9000 2 28 997 9.90000 2.50000 -12.6000 83.9000 TC 25 9 247
1992055S11086 1992 14 SI MM FARIDA 1992-02-24 09:00:00 TS -12.4400 83.5325 main 2075 2075 P____P______P_ SH221992 -12.7500 83.6424 27 -1 -11.8201 83.3126 2 28 997 -12.7500 83.6424 TC 27 8 242
1992055S11086 1992 14 SI MM FARIDA 1992-02-24 12:00:00 TS -12.6333 83.2000 main 2092 2092 O____O______O_ jtwc_sh SH221992 -12.9000 83.4000 30 -1 -12.1000 82.8000 2 28 997 9.90000 2.50000 -12.9000 83.4000 TC 30 7 235
1992055S11086 1992 14 SI MM FARIDA 1992-02-24 15:00:00 TS -12.8591 82.9108 main 2121 2120 P____P______P_ SH221992 -13.0925 83.1425 30 -1 -12.3923 82.4474 2 28 997 -13.0925 83.1425 TC 30 7 228
1992055S11086 1992 14 SI MM FARIDA 1992-02-24 18:00:00 TS -13.1000 82.6667 main 2141 2140 O____O______O_ jtwc_sh SH221992 -13.3000 82.9000 30 -1 -12.7000 82.2000 2 28 997 9.90000 2.50000 -13.3000 82.9000 TC 30 7 223
1992055S11086 1992 14 SI MM FARIDA 1992-02-24 21:00:00 TS -13.3333 82.4566 main 2161 2160 P____P______P_ SH221992 -13.5000 82.6925 30 -1 -12.9999 81.9849 2 30 995 -13.5000 82.6925 TC 30 6 220
1992055S11086 1992 14 SI MM FARIDA 1992-02-25 00:00:00 TS -13.5667 82.2667 main 2192 2191 O____O______O_ jtwc_sh SH221992 -13.7000 82.5000 30 -1 -13.3000 81.8000 2 32 994 9.90000 2.50000 -13.7000 82.5000 TC 30 6 220
1992055S11086 1992 14 SI MM FARIDA 1992-02-25 03:00:00 TS -13.7925 82.0616 main 2213 2212 P____P______P_ SH221992 -13.8925 82.2999 32 -1 -13.5925 81.5850 2 34 992 -13.8925 82.2999 TC 32 6 220
1992055S11086 1992 14 SI MM FARIDA 1992-02-25 06:00:00 TS -14.0333 81.8667 main 2234 2234 O____O______O_ jtwc_sh SH221992 -14.1000 82.1000 35 0 -13.9000 81.4000 3 36 991 9.90000 3.00000 -14.1000 82.1000 TC 35 6 215
1992055S11086 1992 14 SI MM FARIDA 1992-02-25 09:00:00 TS -14.3167 81.6875 main 2266 2266 P____P______P_ SH221992 -14.3500 81.8925 35 0 -14.2500 81.2775 3 38 989 -14.3500 81.8925 TC 35 7 210
1992055S11086 1992 14 SI MM FARIDA 1992-02-25 12:00:00 TS -14.6000 81.5333 main 2298 2298 O____O______O_ jtwc_sh SH221992 -14.6000 81.7000 35 0 -14.6000 81.2000 3 41 987 9.90000 3.50000 -14.6000 81.7000 TC 35 6 207
1992055S11086 1992 14 SI MM FARIDA 1992-02-25 15:00:00 TS -14.8358 81.4116 main 2320 2320 P____P______P_ SH221992 -14.8000 81.5424 37 0 -14.9075 81.1499 3 42 985 -14.8000 81.5424 TC 37 5 206
1992055S11086 1992 14 SI MM FARIDA 1992-02-25 18:00:00 TS -15.0667 81.3000 main 2353 2353 O____O______O_ jtwc_sh SH221992 -15.0000 81.4000 40 0 -15.2000 81.1000 3 44 984 9.90000 3.50000 -15.0000 81.4000 TC 40 6 205
1992055S11086 1992 14 SI MM FARIDA 1992-02-25 21:00:00 TS -15.3383 81.1692 main 2375 2375 P____P______P_ SH221992 -15.2500 81.2500 42 0 -15.5150 81.0075 3 46 982 -15.2500 81.2500 TC 42 6 206
1992055S11086 1992 14 SI MM FARIDA 1992-02-26 00:00:00 TS -15.6000 81.0333 main 2408 2408 O____O______O_ jtwc_sh SH221992 -15.5000 81.1000 45 0 -15.8000 80.9000 3 48 980 9.90000 4.00000 -15.5000 81.1000 TC 45 5 209
1992055S11086 1992 14 SI MM FARIDA 1992-02-26 03:00:00 TS -15.8125 80.9000 main 2431 2431 P____P______P_ SH221992 -15.7075 80.9500 50 0 -16.0225 80.8000 3 50 978 -15.7075 80.9500 TC 50 5 213
1992055S11086 1992 14 SI MM FARIDA 1992-02-26 06:00:00 TS -16.0000 80.7667 main 2453 2449 O____O______O_ jtwc_sh SH221992 -15.9000 80.8000 55 0 -16.2000 80.7000 3 52 976 9.90000 4.00000 -15.9000 80.8000 TC 55 5 214
1992055S11086 1992 14 SI MM FARIDA 1992-02-26 09:00:00 TS -16.1833 80.6358 main 2449 2433 P____P______P_ SH221992 -16.1000 80.6500 57 0 -16.3500 80.6074 3 55 973 -16.1000 80.6500 TC 57 4 215
1992055S11086 1992 14 SI MM FARIDA 1992-02-26 12:00:00 TS -16.3667 80.5000 main 2433 2417 O____O______O_ jtwc_sh SH221992 -16.3000 80.5000 60 0 -16.5000 80.5000 3 58 970 9.90000 4.50000 -16.3000 80.5000 TC 60 5 215
1992055S11086 1992 14 SI MM FARIDA 1992-02-26 15:00:00 TS -16.5641 80.3600 main 2417 2391 P____P______P_ SH221992 -16.5000 80.3574 62 0 -16.6925 80.3650 3 60 968 -16.5000 80.3574 TC 62 5 216
1992055S11086 1992 14 SI MM FARIDA 1992-02-26 18:00:00 TS -16.7667 80.2000 main 2391 2366 O____O______O_ jtwc_sh SH221992 -16.7000 80.2000 65 1 -16.9000 80.2000 3 62 966 9.90000 4.50000 -16.7000 80.2000 TC 65 5 220
1992055S11086 1992 14 SI MM FARIDA 1992-02-26 21:00:00 TS -16.9667 80.0100 main 2366 2340 P____P______P_ SH221992 -16.9000 80.0150 70 1 -17.1000 80.0000 3 62 966 -16.9000 80.0150 TC 70 6 224
1992055S11086 1992 14 SI MM FARIDA 1992-02-27 00:00:00 TS -17.1667 79.8000 62 966 reunion main 2340 2315 O____O______O_ jtwc_sh SH221992 -17.1000 79.8000 75 1 -17.3000 79.8000 3 62 966 9.90000 4.50000 -17.1000 79.8000 TC 75 6 224
1992055S11086 1992 14 SI MM FARIDA 1992-02-27 03:00:00 TS -17.3691 79.5958 main 2315 2290 P____P______P_ SH221992 -17.3075 79.5650 77 1 -17.4924 79.6574 3 65 962 -17.3075 79.5650 TC 77 6 226
1992055S11086 1992 14 SI MM FARIDA 1992-02-27 06:00:00 TS -17.5667 79.3667 68 959 reunion main 2290 2254 O____O______O_ jtwc_sh SH221992 -17.5000 79.3000 80 1 -17.7000 79.5000 4 68 959 9.90000 4.50000 -17.5000 79.3000 TC 80 6 229
1992055S11086 1992 14 SI MM FARIDA 1992-02-27 09:00:00 TS -17.7699 79.1083 main 2254 2221 P____P______P_ SH221992 -17.6649 79.0150 80 1 -17.9799 79.2951 4 70 956 -17.6649 79.0150 TC 80 7 236
1992055S11086 1992 14 SI MM FARIDA 1992-02-27 12:00:00 TS -17.9333 78.8000 72 954 reunion main 2221 2177 O____O______O_ jtwc_sh SH221992 -17.8000 78.7000 80 1 -18.2000 79.0000 4 72 954 9.90000 5.00000 -17.8000 78.7000 TC 80 7 249
1992055S11086 1992 14 SI MM FARIDA 1992-02-27 15:00:00 TS -18.0251 78.4216 main 2177 2144 P____P______P_ SH221992 -17.9150 78.3500 82 1 -18.2452 78.5648 4 72 954 -17.9150 78.3500 TC 82 7 260
1992055S11086 1992 14 SI MM FARIDA 1992-02-27 18:00:00 TS -18.0667 78.0333 72 954 reunion main 2134 2102 O____O______O_ jtwc_sh SH221992 -18.0000 78.0000 85 2 -18.2000 78.1000 4 72 954 9.90000 5.00000 -18.0000 78.0000 TC 85 7 266
1992055S11086 1992 14 SI MM FARIDA 1992-02-27 21:00:00 TS -18.0758 77.7015 main 2102 2071 P____P______P_ SH221992 -18.0499 77.6924 90 2 -18.1274 77.7198 4 72 954 -18.0499 77.6924 TC 90 6 267
1992055S11086 1992 14 SI MM FARIDA 1992-02-28 00:00:00 TS -18.1000 77.4000 72 954 reunion main 2071 2038 O____O______O_ jtwc_sh SH221992 -18.1000 77.4000 95 2 -18.1000 77.4000 4 72 954 9.90000 5.00000 -18.1000 77.4000 TC 95 6 258
1992055S11086 1992 14 SI MM FARIDA 1992-02-28 03:00:00 TS -18.1941 77.1117 main 2038 2005 P____P______P_ SH221992 -18.1850 77.1000 100 3 -18.2124 77.1351 4 72 954 -18.1850 77.1000 TC 100 6 247
1992055S11086 1992 14 SI MM FARIDA 1992-02-28 06:00:00 TS -18.3333 76.8333 72 954 reunion main 2005 1980 O____O______O_ jtwc_sh SH221992 -18.3000 76.8000 105 3 -18.4000 76.9000 4 72 954 9.90000 5.00000 -18.3000 76.8000 TC 105 6 240
1992055S11086 1992 14 SI MM FARIDA 1992-02-28 09:00:00 TS -18.4999 76.5525 main 1980 1946 P____P______P_ SH221992 -18.4425 76.4925 110 3 -18.6149 76.6725 4 77 947 -18.4425 76.4925 TC 110 6 238
1992055S11086 1992 14 SI MM FARIDA 1992-02-28 12:00:00 TS -18.6667 76.2667 82 941 reunion main 1946 1913 O____O______O_ jtwc_sh SH221992 -18.6000 76.2000 115 4 -18.8000 76.4000 4 82 941 9.90000 5.50000 -18.6000 76.2000 TC 115 6 242
1992055S11086 1992 14 SI MM FARIDA 1992-02-28 15:00:00 TS -18.7883 75.9716 main 1913 1880 P____P______P_ SH221992 -18.7499 75.9499 117 4 -18.8651 76.0148 4 82 941 -18.7499 75.9499 TC 117 6 248
1992055S11086 1992 14 SI MM FARIDA 1992-02-28 18:00:00 TS -18.9000 75.6667 82 941 reunion main 1880 1847 O____O______O_ jtwc_sh SH221992 -18.9000 75.7000 120 4 -18.9000 75.6000 4 82 941 9.90000 5.50000 -18.9000 75.7000 TC 120 6 249
1992055S11086 1992 14 SI MM FARIDA 1992-02-28 21:00:00 TS -19.0234 75.3325 main 1837 1803 P____P______P_ SH221992 -19.0500 75.3925 120 4 -18.9700 75.2125 4 82 941 -19.0500 75.3925 TC 120 7 246
1992055S11086 1992 14 SI MM FARIDA 1992-02-29 00:00:00 TS -19.1667 75.0333 82 941 reunion main 1803 1781 O____O______O_ jtwc_sh SH221992 -19.2000 75.1000 120 4 -19.1000 74.9000 4 82 941 9.90000 5.50000 -19.2000 75.1000 TC 120 6 236
1992055S11086 1992 14 SI MM FARIDA 1992-02-29 03:00:00 TS -19.3374 74.8399 main 1781 1768 P____P______P_ SH221992 -19.3424 74.8924 120 4 -19.3273 74.7349 4 79 944 -19.3424 74.8924 TC 120 5 223
1992055S11086 1992 14 SI MM FARIDA 1992-02-29 06:00:00 TS -19.5333 74.6667 77 948 reunion main 1768 1734 O____O______O_ jtwc_sh SH221992 -19.5000 74.7000 120 4 -19.6000 74.6000 4 77 948 9.90000 5.00000 -19.5000 74.7000 TC 120 6 223
1992055S11086 1992 14 SI MM FARIDA 1992-02-29 09:00:00 TS -19.7475 74.4267 main 1734 1711 P____P______P_ SH221992 -19.6850 74.4575 117 4 -19.8725 74.3651 4 77 948 -19.6850 74.4575 TC 117 6 227
1992055S11086 1992 14 SI MM FARIDA 1992-02-29 12:00:00 TS -19.9667 74.1667 77 948 reunion main 1711 1678 O____O______O_ jtwc_sh SH221992 -19.9000 74.2000 115 4 -20.1000 74.1000 4 77 948 9.90000 5.00000 -19.9000 74.2000 TC 115 6 228
1992055S11086 1992 14 SI MM FARIDA 1992-02-29 15:00:00 TS -20.1691 73.9216 main 1678 1656 P____P______P_ SH221992 -20.1424 73.9574 115 4 -20.2225 73.8499 4 74 951 -20.1424 73.9574 TC 115 6 230
1992055S11086 1992 14 SI MM FARIDA 1992-02-29 18:00:00 TS -20.3667 73.6667 72 954 reunion main 1656 1625 O____O______O_ jtwc_sh SH221992 -20.4000 73.7000 115 4 -20.3000 73.6000 4 72 954 9.90000 5.00000 -20.4000 73.7000 TC 115 6 232
1992055S11086 1992 14 SI MM FARIDA 1992-02-29 21:00:00 TS -20.5591 73.3957 main 1624 1593 P____P______P_ SH221992 -20.6424 73.4223 112 3 -20.3925 73.3425 4 72 954 -20.6424 73.4223 TC 112 7 233
1992055S11086 1992 14 SI MM FARIDA 1992-03-01 00:00:00 TS -20.7667 73.1000 72 954 reunion main 1593 1561 O____O______O_ jtwc_sh SH221992 -20.9000 73.1000 110 3 -20.5000 73.1000 4 72 954 9.90000 5.00000 -20.9000 73.1000 TC 110 7 232
1992055S11086 1992 14 SI MM FARIDA 1992-03-01 03:00:00 TS -21.0166 72.7792 main 1561 1531 P____P______P_ SH221992 -21.1999 72.7225 110 3 -20.6499 72.8925 4 72 954 -21.1999 72.7225 TC 110 8 231
1992055S11086 1992 14 SI MM FARIDA 1992-03-01 06:00:00 TS -21.2667 72.4333 72 954 reunion main 1520 1490 O____O______O_ jtwc_sh SH221992 -21.5000 72.3000 110 3 -20.8000 72.7000 4 72 954 9.90000 5.00000 -21.5000 72.3000 TC 110 8 235
1992055S11086 1992 14 SI MM FARIDA 1992-03-01 09:00:00 TS -21.4690 72.0914 main 1490 1449 P____P______P_ SH221992 -21.7649 71.8649 107 3 -20.8772 72.5446 4 67 960 -21.7649 71.8649 TC 107 8 240
1992055S11086 1992 14 SI MM FARIDA 1992-03-01 12:00:00 TS -21.6667 71.7000 62 966 reunion main 1450 1411 O____O______O_ jtwc_sh SH221992 -22.0000 71.4000 105 3 -21.0000 72.3000 3 62 966 9.90000 4.50000 -22.0000 71.4000 TC 105 9 242
1992055S11086 1992 14 SI MM FARIDA 1992-03-01 15:00:00 TS -21.8897 71.2497 main 1400 1351 P____P______P_ SH221992 -22.2073 70.9222 102 3 -21.2545 71.9045 3 57 971 -22.2073 70.9222 TC 102 10 243
1992055S11086 1992 14 SI MM FARIDA 1992-03-01 18:00:00 TS -22.1333 70.7000 52 976 reunion main 1351 1294 O____O______O_ jtwc_sh SH221992 -22.4000 70.4000 100 3 -21.6000 71.3000 3 52 976 9.90000 4.00000 -22.4000 70.4000 TC 100 12 246
1992055S11086 1992 14 SI MM FARIDA 1992-03-01 21:00:00 TS -22.3952 70.0250 main 1284 1218 P____P______P_ SH221992 -22.5999 69.8149 95 2 -21.9856 70.4453 3 48 980 -22.5999 69.8149 TC 95 14 248
1992055S11086 1992 14 SI MM FARIDA 1992-03-02 00:00:00 TS -22.6667 69.3000 44 984 reunion main 1218 1163 O____O______O_ jtwc_sh SH221992 -22.8000 69.2000 90 2 -22.4000 69.5000 3 44 984 9.90000 3.50000 -22.8000 69.2000 TC 90 14 247
1992055S11086 1992 14 SI MM FARIDA 1992-03-02 03:00:00 TS -22.9331 68.6206 main 1153 1101 P____P______P_ SH221992 -22.9923 68.5997 85 2 -22.8147 68.6624 3 44 984 -22.9923 68.5997 TC 85 13 247
1992055S11086 1992 14 SI MM FARIDA 1992-03-02 06:00:00 TS -23.2000 67.9667 44 984 reunion main 1101 1049 O____O______O_ jtwc_sh SH221992 -23.2000 68.0000 80 1 -23.2000 67.9000 3 44 984 9.90000 3.50000 -23.2000 68.0000 TC 80 13 246
1992055S11086 1992 14 SI MM FARIDA 1992-03-02 09:00:00 TS -23.4613 67.3471 main 1042 1002 P____P______P_ SH221992 -23.4347 67.4072 75 1 -23.5144 67.2268 3 40 987 -23.4347 67.4072 TC 75 13 245
1992055S11086 1992 14 SI MM FARIDA 1992-03-02 12:00:00 TS -23.7333 66.7333 36 991 reunion main 992 948 O____O______O_ jtwc_sh SH221992 -23.7000 66.8000 70 1 -23.8000 66.6000 3 36 991 9.90000 3.00000 -23.7000 66.8000 TC 70 13 245
1992055S11086 1992 14 SI MM FARIDA 1992-03-02 15:00:00 TS -24.0134 66.0631 main 948 906 P____P______P_ SH221992 -23.9774 66.1497 67 1 -24.0853 65.8900 3 32 994 -23.9774 66.1497 TC 67 13 243
1992055S11086 1992 14 SI MM FARIDA 1992-03-02 18:00:00 TS -24.3333 65.4333 28 997 reunion main 897 878 O____O______O_ jtwc_sh SH221992 -24.3000 65.5000 65 1 -24.4000 65.3000 2 28 997 9.90000 2.50000 -24.3000 65.5000 TC 65 13 236
1992055S11086 1992 14 SI MM FARIDA 1992-03-02 21:00:00 TS -24.7130 64.9246 main 875 865 P____P______P_ SH221992 -24.6698 64.8846 60 0 -24.7994 65.0044 2 26 998 -24.6698 64.8846 TC 60 12 228
1992055S11086 1992 14 SI MM FARIDA 1992-03-03 00:00:00 TS -25.1333 64.4667 24 1000 reunion main 865 852 O____O______O_ jtwc_sh SH221992 -25.1000 64.3000 55 0 -25.2000 64.8000 2 24 1000 9.90000 2.00000 -25.1000 64.3000 TC 55 12 225
1992055S11086 1992 14 SI MM FARIDA 1992-03-03 03:00:00 TS -25.5665 63.9806 main 860 852 P____P______P_ SH221992 -25.5772 63.7421 52 0 -25.5451 64.4576 2 24 1000 -25.5772 63.7421 TC 52 12 225
1992055S11086 1992 14 SI MM FARIDA 1992-03-03 06:00:00 TS -26.0000 63.5000 24 1000 reunion main 853 846 O____O______O_ jtwc_sh SH221992 -26.1000 63.2000 50 0 -25.8000 64.1000 2 24 1000 9.90000 2.00000 -26.1000 63.2000 TC 50 12 225
1992055S11086 1992 14 SI MM FARIDA 1992-03-03 09:00:00 TS -26.4098 63.0330 main 852 852 P____P______P_ SH221992 -26.6423 62.6496 45 0 -25.9448 63.7998 2 24 1000 -26.6423 62.6496 TC 45 10 226
1992055S11086 1992 14 SI MM FARIDA 1992-03-03 12:00:00 TS -26.7200 62.6600 24 1000 reunion main 859 853 O____O______O_ jtwc_sh SH221992 -27.2000 62.1000 40 0 -26.0000 63.5000 2 24 1000 9.90000 2.00000 -27.2000 62.1000 TC 40 8 231
1992055S11086 1992 14 SI MM FARIDA 1992-03-03 15:00:00 TS -26.9027 62.3544 main 860 839 P____P______P_ SH221992 -27.7529 61.5511 35 0 -26.0525 63.1577 2 22 1001 -27.7529 61.5511 TC 35 4 264
1992055S11086 1992 14 SI MM FARIDA 1992-03-03 18:00:00 TS -26.7667 62.2000 21 1002 reunion main 839 768 O____O______O_ jtwc_sh SH221992 -28.3000 61.0000 30 -1 -26.0000 62.8000 6 21 1002 9.90000 1.50000 -28.3000 61.0000 TC 30 11 5
1992055S11086 1992 14 SI MM FARIDA 1992-03-03 21:00:00 TS -25.7948 62.4650 main 768 717 _____P________ SH221992 -1 -25.7948 62.4650 6 TC 13 356
1992055S11086 1992 14 SI MM FARIDA 1992-03-04 00:00:00 TS -25.5000 62.1000 reunion main 717 674 _____O________ -1 -25.5000 62.1000 6 9.90000 9 308
1992055S11086 1992 14 SI MM FARIDA 1992-03-04 03:00:00 TS -25.2375 61.6654 main 666 608 _____P________ -1 -25.2375 61.6654 6 10 306
1992055S11086 1992 14 SI MM FARIDA 1992-03-04 06:00:00 TS -24.9000 61.2000 reunion main 608 548 _____O________ -1 -24.9000 61.2000 6 9.90000 12 314
1992055S11086 1992 14 SI MM FARIDA 1992-03-04 09:00:00 TS -24.4377 60.7441 main 533 464 _____P________ -1 -24.4377 60.7441 6 13 321
1992055S11086 1992 14 SI MM FARIDA 1992-03-04 12:00:00 TS -23.9000 60.3000 reunion main 464 _____O________ -1 -23.9000 60.3000 6 9.90000 14 323

IBTrACS Databaseについて

本データベースは、米国NOAAが公開する1842年以降の世界の熱帯低気圧のベストトラックデータアーカイブInternational Best Track Archive for Climate Stewardship (IBTrACS)を、ウェブで閲覧しやすい形式に変換したものです。

最終更新日:2021-10-21